createdAt,value
2022-08-28T07:49:20.358Z,67.90
2022-08-28T08:04:25.848Z,67.60
2022-08-28T08:19:30.622Z,65.10
2022-08-28T08:34:36.609Z,63.20
2022-08-28T08:49:48.496Z,62.00
2022-08-28T09:04:58.214Z,61.30
2022-08-28T09:20:02.981Z,60.90
2022-08-28T09:35:14.098Z,60.10
2022-08-28T09:50:28.638Z,59.80
2022-08-28T10:05:41.609Z,59.20
2022-08-28T10:20:59.580Z,59.00
2022-08-28T10:36:32.100Z,58.80
2022-08-28T10:51:43.124Z,58.40
2022-08-28T11:06:53.175Z,58.10
2022-08-28T11:22:04.489Z,57.90
2022-08-28T11:37:09.114Z,57.70
2022-08-28T11:52:40.977Z,57.40
2022-08-28T12:07:47.190Z,57.40
2022-08-28T12:22:54.622Z,57.10
2022-08-28T12:38:03.987Z,56.80
2022-08-28T12:53:13.526Z,56.50
2022-08-28T13:08:23.212Z,56.40
2022-08-28T13:23:30.795Z,56.10
2022-08-28T13:38:35.764Z,55.90
2022-08-28T13:53:40.401Z,55.60
2022-08-28T14:08:46.668Z,55.30
2022-08-28T14:23:51.270Z,55.10
2022-08-28T14:38:56.750Z,54.90
2022-08-28T14:54:02.951Z,54.70
2022-08-28T15:09:07.592Z,54.80
2022-08-28T15:24:12.709Z,54.40
2022-08-28T15:39:35.615Z,54.40
2022-08-28T15:54:40.183Z,54.50
2022-08-28T16:09:44.746Z,52.90
2022-08-28T16:24:49.335Z,52.30
2022-08-28T16:39:56.398Z,52.30
2022-08-28T16:55:00.971Z,52.20
2022-08-28T17:10:06.383Z,51.50
2022-08-28T17:25:13.688Z,52.10
2022-08-28T17:40:18.944Z,51.40
2022-08-28T17:55:24.247Z,51.00
2022-08-28T18:10:33.463Z,51.20
2022-08-28T18:25:50.577Z,51.10
2022-08-28T18:40:56.822Z,52.20
2022-08-28T18:56:02.600Z,52.00
2022-08-28T19:11:10.259Z,52.10
2022-08-28T19:26:14.938Z,50.30
2022-08-28T19:41:19.892Z,48.00
